Time;durP1;ratioP1;P1;durP2;ratioP2;P2;SDS_P1;SDS_P2;PMS_P1;PMS_P2;Temp;Humidity;BMP_temperature;BMP_pressure;BME280_temperature;BME280_humidity;BME280_pressure;Samples;Min_cycle;Max_cycle;Signal;HPM_P1;HPM_P2
2023/07/29 00:01:56;;;;;;;0.10;0.10;;;;;;;18.89;80.91;96976.81;5042424;28;20052;-75
2023/07/29 00:04:24;;;;;;;0.10;0.10;;;;;;;18.82;81.42;96977.03;5044140;28;20037;-75
2023/07/29 00:06:52;;;;;;;0.03;0.03;;;;;;;18.78;81.51;96985.94;5043756;28;20140;-74
2023/07/29 00:09:19;;;;;;;0.00;0.00;;;;;;;18.80;81.30;96987.28;5043501;28;20068;-74
2023/07/29 00:11:47;;;;;;;0.08;0.08;;;;;;;18.86;81.14;96988.16;5043661;28;20044;-74
2023/07/29 00:14:16;;;;;;;0.10;0.10;;;;;;;18.76;81.61;96979.97;5045127;28;20041;-74
2023/07/29 00:16:44;;;;;;;0.10;0.10;;;;;;;18.78;81.52;96983.25;5046658;28;20052;-74
2023/07/29 00:19:11;;;;;;;0.10;0.10;;;;;;;18.78;81.57;96977.84;5043062;28;20072;-74
2023/07/29 00:21:40;;;;;;;0.03;0.03;;;;;;;18.77;81.35;96973.50;5044149;28;20051;-74
2023/07/29 00:24:08;;;;;;;0.10;0.10;;;;;;;18.79;81.39;96977.53;5044245;28;20033;-74
2023/07/29 00:26:36;;;;;;;0.00;0.00;;;;;;;18.79;81.21;96971.34;5026521;28;20159;-74
2023/07/29 00:29:04;;;;;;;0.10;0.10;;;;;;;18.83;81.34;96967.03;5044458;28;20506;-74
2023/07/29 00:31:33;;;;;;;0.10;0.10;;;;;;;18.78;81.40;96967.84;5043893;28;20125;-74
2023/07/29 00:34:01;;;;;;;0.10;0.10;;;;;;;18.77;81.27;96962.69;5026850;28;20392;-74
2023/07/29 00:36:29;;;;;;;0.10;0.10;;;;;;;18.76;81.52;96971.88;5042755;28;20041;-74
2023/07/29 00:38:57;;;;;;;0.10;0.10;;;;;;;18.77;81.59;96962.69;5043481;28;20128;-74
2023/07/29 00:41:26;;;;;;;0.10;0.10;;;;;;;18.82;81.44;96962.69;5026339;28;20428;-74
2023/07/29 00:43:53;;;;;;;0.10;0.10;;;;;;;18.91;80.82;96961.94;5024556;28;20051;-74
2023/07/29 00:46:22;;;;;;;0.10;0.10;;;;;;;18.81;81.35;96948.34;5044886;28;20129;-74
2023/07/29 00:48:52;;;;;;;0.10;0.10;;;;;;;18.73;81.84;96948.03;5043097;28;20453;-74
2023/07/29 00:51:20;;;;;;;0.03;0.03;;;;;;;18.68;81.98;96946.97;5027245;28;20079;-74
2023/07/29 00:53:47;;;;;;;0.00;0.00;;;;;;;18.65;82.03;96946.66;5024646;28;20051;-74
2023/07/29 00:56:15;;;;;;;0.05;0.05;;;;;;;18.67;82.26;96944.50;5025834;28;20111;-74
2023/07/29 00:58:43;;;;;;;0.10;0.10;;;;;;;18.68;82.06;96952.38;5043658;28;20083;-75
2023/07/29 01:01:11;;;;;;;0.10;0.10;;;;;;;18.64;82.50;96942.31;5043103;28;20041;-75
2023/07/29 01:03:39;;;;;;;0.10;0.10;;;;;;;18.62;82.23;96948.00;5025249;28;20510;-75
2023/07/29 01:06:14;;;;;;;0.10;0.10;;;;;;;18.57;82.63;96953.38;5052475;22;20125;-74
2023/07/29 01:08:47;;;;;;;0.10;0.10;;;;;;;18.55;82.91;96952.78;5047414;28;20135;-75
2023/07/29 01:11:29;;;;;;;0.00;0.00;;;;;;;18.52;82.99;96953.31;5064044;28;20493;-75
2023/07/29 01:14:01;;;;;;;0.10;0.10;;;;;;;18.57;82.76;96953.38;5047849;28;20167;-76
2023/07/29 01:16:31;;;;;;;0.10;0.10;;;;;;;18.44;83.31;96951.09;5040725;28;20482;-75
2023/07/29 01:19:05;;;;;;;0.30;0.30;;;;;;;18.48;82.97;96957.59;5024219;28;20421;-75
2023/07/29 01:21:35;;;;;;;0.00;0.00;;;;;;;18.48;83.12;96946.00;5029448;28;20136;-75
2023/07/29 01:24:04;;;;;;;0.20;0.20;;;;;;;18.47;82.94;96945.19;5046454;28;20559;-74
2023/07/29 01:26:32;;;;;;;0.10;0.10;;;;;;;18.42;83.17;96939.72;5025273;28;20056;-74
2023/07/29 01:29:00;;;;;;;0.00;0.00;;;;;;;18.34;83.39;96942.94;5028783;28;20136;-74
2023/07/29 01:31:32;;;;;;;0.10;0.10;;;;;;;18.30;83.73;96947.22;5042541;28;20485;-75
2023/07/29 01:34:05;;;;;;;0.00;0.00;;;;;;;18.35;83.55;96947.25;5025250;28;20132;-75
2023/07/29 01:36:34;;;;;;;0.10;0.10;;;;;;;18.28;84.00;96942.06;5027345;28;20095;-74
2023/07/29 01:39:05;;;;;;;0.10;0.10;;;;;;;18.28;83.81;96946.66;5041056;28;20395;-75
2023/07/29 01:41:33;;;;;;;0.10;0.10;;;;;;;18.29;83.85;96949.09;5026414;28;20135;-74
2023/07/29 01:44:01;;;;;;;0.10;0.10;;;;;;;18.24;83.87;96942.84;5025614;28;20072;-74
2023/07/29 01:46:33;;;;;;;0.10;0.10;;;;;;;18.22;84.44;96945.81;5026669;28;20139;-74
2023/07/29 01:49:01;;;;;;;0.10;0.10;;;;;;;18.20;84.40;96950.66;5043321;28;20045;-74
2023/07/29 01:51:29;;;;;;;0.10;0.10;;;;;;;18.20;84.43;96952.53;5027376;28;20052;-75
2023/07/29 01:53:59;;;;;;;0.05;0.05;;;;;;;18.19;84.60;96945.50;5025167;28;20050;-75
2023/07/29 01:56:28;;;;;;;0.10;0.10;;;;;;;18.14;85.03;96945.47;5023894;28;20045;-74
2023/07/29 01:58:57;;;;;;;0.10;0.10;;;;;;;18.17;84.91;96945.75;5024983;28;20045;-74
2023/07/29 02:01:25;;;;;;;0.10;0.10;;;;;;;18.24;84.35;96954.47;5046393;28;20463;-74
2023/07/29 02:03:55;;;;;;;0.08;0.08;;;;;;;18.20;84.88;96950.66;5032910;28;20051;-74
2023/07/29 02:06:24;;;;;;;0.10;0.10;;;;;;;18.16;84.98;96941.47;5026684;28;20076;-74
2023/07/29 02:08:52;;;;;;;0.10;0.10;;;;;;;18.19;84.82;96956.31;5028503;28;20394;-74
2023/07/29 02:11:20;;;;;;;0.10;0.10;;;;;;;18.20;85.00;96949.84;5047442;28;20037;-74
2023/07/29 02:13:49;;;;;;;0.05;0.05;;;;;;;18.20;84.87;96947.94;5027404;28;20767;-74
2023/07/29 02:16:17;;;;;;;0.10;0.10;;;;;;;18.20;85.05;96945.25;5049309;28;20131;-74
2023/07/29 02:18:45;;;;;;;0.10;0.10;;;;;;;18.25;84.84;96952.59;5031228;28;20445;-74
2023/07/29 02:21:13;;;;;;;0.10;0.10;;;;;;;18.23;84.69;96942.03;5028997;28;20045;-74
2023/07/29 02:23:40;;;;;;;0.25;0.25;;;;;;;18.30;84.50;96942.63;5054014;28;20128;-74
2023/07/29 02:26:08;;;;;;;0.10;0.10;;;;;;;18.28;84.67;96938.53;5034779;28;20045;-74
2023/07/29 02:28:36;;;;;;;0.10;0.10;;;;;;;18.28;84.47;96943.94;5030477;28;20049;-74
2023/07/29 02:31:15;;;;;;;0.10;0.10;;;;;;;18.26;84.56;96938.00;5027149;28;20520;-74
2023/07/29 02:33:43;;;;;;;0.10;0.10;;;;;;;18.25;84.91;96936.38;5024953;28;20140;-76
2023/07/29 02:36:12;;;;;;;0.10;0.10;;;;;;;18.20;84.90;96939.03;5024614;28;20033;-75
2023/07/29 02:38:40;;;;;;;0.00;0.00;;;;;;;18.25;84.70;96936.38;5023993;28;20131;-74
2023/07/29 02:41:09;;;;;;;0.10;0.10;;;;;;;18.24;84.57;96938.28;5023354;28;20056;-74
2023/07/29 02:43:37;;;;;;;0.10;0.10;;;;;;;18.22;84.61;96939.59;5026884;28;20048;-74
2023/07/29 02:46:04;;;;;;;0.08;0.08;;;;;;;18.21;84.75;96949.59;5024710;28;20049;-74
2023/07/29 02:48:33;;;;;;;0.13;0.13;;;;;;;18.19;84.74;96937.41;5026431;28;20045;-74
2023/07/29 02:51:01;;;;;;;0.10;0.10;;;;;;;18.16;85.15;96944.16;5023754;28;20111;-74
2023/07/29 02:53:29;;;;;;;0.10;0.10;;;;;;;18.15;84.96;96939.00;5029035;28;20450;-74
2023/07/29 02:55:56;;;;;;;0.10;0.10;;;;;;;18.16;84.96;96944.16;5025708;28;20053;-75
2023/07/29 02:58:26;;;;;;;0.10;0.10;;;;;;;18.23;84.90;96952.84;5044622;28;20112;-75
2023/07/29 03:00:53;;;;;;;0.10;0.10;;;;;;;18.19;85.00;96943.63;5026585;28;20068;-75
2023/07/29 03:03:21;;;;;;;0.10;0.10;;;;;;;18.20;84.95;96947.13;5043250;28;20037;-74
2023/07/29 03:05:51;;;;;;;0.10;0.10;;;;;;;18.19;84.87;96945.50;5023410;28;20043;-74
2023/07/29 03:08:18;;;;;;;0.10;0.10;;;;;;;18.24;85.13;96942.84;5041991;28;20056;-75
2023/07/29 03:10:46;;;;;;;0.08;0.08;;;;;;;18.24;84.70;96945.56;5042261;28;20071;-75
2023/07/29 03:13:14;;;;;;;0.03;0.03;;;;;;;18.21;85.02;96940.66;5039775;28;20045;-75
2023/07/29 03:15:41;;;;;;;0.13;0.13;;;;;;;18.22;84.94;96936.91;5026812;28;20029;-75
2023/07/29 03:18:09;;;;;;;0.10;0.10;;;;;;;18.22;84.82;96937.72;5045444;28;20040;-75
2023/07/29 03:20:37;;;;;;;0.10;0.10;;;;;;;18.27;84.87;96935.03;5026740;28;20099;-75
2023/07/29 03:23:06;;;;;;;0.10;0.10;;;;;;;18.27;84.69;96928.84;5024009;28;20045;-76
2023/07/29 03:25:34;;;;;;;0.15;0.15;;;;;;;18.23;84.47;96938.53;5027075;28;20041;-75
2023/07/29 03:28:01;;;;;;;0.00;0.00;;;;;;;18.16;84.90;96940.66;5047261;28;20076;-77
2023/07/29 03:30:29;;;;;;;0.03;0.03;;;;;;;18.21;84.44;96943.38;5024452;28;20144;-74
2023/07/29 03:32:57;;;;;;;0.10;0.10;;;;;;;18.17;84.94;96926.06;5025738;28;20052;-75
2023/07/29 03:35:25;;;;;;;0.15;0.15;;;;;;;18.19;84.69;96946.31;5025809;28;20068;-74
2023/07/29 03:37:52;;;;;;;0.10;0.10;;;;;;;18.23;84.63;96941.22;5024085;28;20049;-75
2023/07/29 03:40:22;;;;;;;0.10;0.10;;;;;;;18.23;84.40;96944.75;5023120;28;20488;-74
2023/07/29 03:42:50;;;;;;;0.13;0.13;;;;;;;18.23;84.38;96942.03;5023580;28;20044;-75
2023/07/29 03:45:17;;;;;;;0.10;0.10;;;;;;;18.24;84.60;96945.56;5040596;28;20502;-75
2023/07/29 03:47:45;;;;;;;0.10;0.10;;;;;;;18.24;84.19;96945.56;5025913;28;20132;-73
2023/07/29 03:50:12;;;;;;;0.30;0.30;;;;;;;18.25;84.51;96939.91;5019366;28;20135;-74
2023/07/29 03:52:40;;;;;;;0.00;0.00;;;;;;;18.28;84.45;96939.34;5023193;28;20042;-75
2023/07/29 03:55:09;;;;;;;0.10;0.10;;;;;;;18.29;84.87;96937.47;5026285;28;20063;-75
2023/07/29 03:57:38;;;;;;;0.10;0.10;;;;;;;18.31;84.82;96938.84;5025347;28;20060;-75
2023/07/29 04:00:06;;;;;;;0.00;0.00;;;;;;;18.28;84.67;96939.34;5026085;28;20052;-74
2023/07/29 04:02:42;;;;;;;0.10;0.10;;;;;;;18.26;84.78;96936.13;5045317;28;20045;-75
2023/07/29 04:05:11;;;;;;;0.10;0.10;;;;;;;18.25;84.26;96926.38;5025008;28;20128;-74
2023/07/29 04:07:39;;;;;;;0.10;0.10;;;;;;;18.26;84.58;96927.22;5024289;28;20049;-75
2023/07/29 04:10:08;;;;;;;0.00;0.00;;;;;;;18.28;84.70;96920.44;5023209;28;20502;-74
2023/07/29 04:12:37;;;;;;;0.00;0.00;;;;;;;18.29;84.51;96921.25;5023654;28;20045;-74
2023/07/29 04:15:06;;;;;;;0.20;0.20;;;;;;;18.29;84.25;96926.66;5022381;28;20136;-73
2023/07/29 04:17:34;;;;;;;0.10;0.10;;;;;;;18.27;84.34;96907.22;5041173;28;20065;-74
2023/07/29 04:20:03;;;;;;;0.00;0.00;;;;;;;18.29;84.16;96913.16;5022186;28;20045;-74
2023/07/29 04:22:34;;;;;;;0.10;0.10;;;;;;;18.28;84.22;96908.81;5022337;28;20403;-74
2023/07/29 04:25:04;;;;;;;0.00;0.00;;;;;;;18.27;84.50;96910.72;5021743;28;20045;-73
2023/07/29 04:27:32;;;;;;;0.10;0.10;;;;;;;18.28;84.05;96903.41;5041340;28;20040;-74
2023/07/29 04:30:01;;;;;;;0.10;0.10;;;;;;;18.24;84.20;96900.44;5023552;28;20474;-74
2023/07/29 04:32:28;;;;;;;0.10;0.10;;;;;;;18.24;84.40;96891.53;5022074;28;20038;-74
2023/07/29 04:34:56;;;;;;;0.08;0.08;;;;;;;18.22;84.37;96886.38;5041423;28;20056;-74
2023/07/29 04:37:25;;;;;;;0.10;0.10;;;;;;;18.19;84.21;96888.78;5040157;28;20483;-74
2023/07/29 04:39:52;;;;;;;0.00;0.00;;;;;;;18.20;84.56;96895.81;5022911;28;20128;-74
2023/07/29 04:42:20;;;;;;;0.30;0.30;;;;;;;18.25;84.30;96909.38;5023522;28;20549;-74
2023/07/29 04:44:49;;;;;;;0.10;0.10;;;;;;;18.26;84.31;96913.69;5022636;28;20052;-74
2023/07/29 04:47:18;;;;;;;0.10;0.10;;;;;;;18.22;84.19;96908.00;5022117;28;20069;-74
2023/07/29 04:49:46;;;;;;;0.00;0.00;;;;;;;18.26;84.25;96905.59;5026008;28;20045;-74
2023/07/29 04:52:14;;;;;;;0.10;0.10;;;;;;;18.26;84.43;96903.72;5043848;28;20055;-75
2023/07/29 04:54:42;;;;;;;0.10;0.10;;;;;;;18.28;84.20;96898.84;5024844;28;20133;-74
2023/07/29 04:57:10;;;;;;;0.10;0.10;;;;;;;18.30;83.95;96899.38;5027348;28;20131;-74
2023/07/29 04:59:38;;;;;;;0.05;0.05;;;;;;;18.33;83.95;96889.97;5031564;28;20045;-75
2023/07/29 05:02:06;;;;;;;0.10;0.10;;;;;;;18.36;83.88;96888.63;5028600;28;20107;-74
2023/07/29 05:04:35;;;;;;;0.10;0.10;;;;;;;18.37;83.71;96901.06;5027836;28;20079;-74
2023/07/29 05:07:03;;;;;;;0.20;0.20;;;;;;;18.38;83.14;96892.66;5041974;28;20047;-74
2023/07/29 05:09:32;;;;;;;0.10;0.10;;;;;;;18.37;83.18;96898.38;5025423;28;20045;-74
2023/07/29 05:11:59;;;;;;;0.10;0.10;;;;;;;18.39;83.13;96904.28;5043399;28;20059;-74
2023/07/29 05:14:27;;;;;;;0.10;0.10;;;;;;;18.39;82.86;96899.72;5027506;28;20052;-74
2023/07/29 05:16:55;;;;;;;0.13;0.13;;;;;;;18.43;82.33;96898.13;5042081;28;20048;-75
2023/07/29 05:19:22;;;;;;;0.20;0.20;;;;;;;18.47;82.07;96898.41;5032499;28;20049;-73
2023/07/29 05:21:51;;;;;;;0.20;0.20;;;;;;;18.55;81.45;96903.31;5027222;28;20053;-73
2023/07/29 05:24:19;;;;;;;0.10;0.10;;;;;;;18.64;81.27;96913.41;5026980;28;20044;-74
2023/07/29 05:26:47;;;;;;;0.10;0.10;;;;;;;18.68;80.88;96911.81;5025185;28;20045;-74
2023/07/29 05:29:14;;;;;;;0.10;0.10;;;;;;;18.76;80.40;96912.38;5029527;28;20044;-74
2023/07/29 05:31:42;;;;;;;0.15;0.15;;;;;;;18.91;79.78;96912.44;5027890;28;20041;-74
2023/07/29 05:34:10;;;;;;;0.13;0.13;;;;;;;18.96;79.45;96920.59;5028682;28;20045;-74
2023/07/29 05:36:39;;;;;;;0.10;0.10;;;;;;;19.00;79.10;96922.47;5027117;28;20040;-74
2023/07/29 05:39:08;;;;;;;0.10;0.10;;;;;;;19.00;78.89;96924.38;5025254;28;20050;-74
2023/07/29 05:41:35;;;;;;;0.10;0.10;;;;;;;18.97;78.86;96928.44;5024402;28;20060;-74
2023/07/29 05:44:03;;;;;;;0.10;0.10;;;;;;;18.98;79.02;96934.66;5024825;28;20079;-75
2023/07/29 05:46:31;;;;;;;0.00;0.00;;;;;;;19.03;78.74;96929.25;5024237;28;20079;-75
2023/07/29 05:48:59;;;;;;;0.10;0.10;;;;;;;18.98;79.22;96934.66;5041653;28;20050;-73
2023/07/29 05:51:27;;;;;;;0.08;0.08;;;;;;;19.00;79.02;96932.47;5024522;28;20041;-72
2023/07/29 05:53:54;;;;;;;0.10;0.10;;;;;;;19.02;78.75;96933.03;5042275;28;20065;-74
2023/07/29 05:56:23;;;;;;;0.10;0.10;;;;;;;19.01;78.03;96937.63;5042021;28;20047;-75
2023/07/29 05:58:52;;;;;;;0.05;0.05;;;;;;;19.06;78.24;96934.97;5023893;28;20051;-74
2023/07/29 06:01:21;;;;;;;0.00;0.00;;;;;;;19.12;77.74;96940.38;5044720;28;20083;-74
2023/07/29 06:03:49;;;;;;;0.10;0.10;;;;;;;19.14;78.19;96925.50;5048306;28;20045;-75
2023/07/29 06:06:17;;;;;;;0.00;0.00;;;;;;;19.14;77.93;96928.22;5025263;28;20045;-75
2023/07/29 06:08:45;;;;;;;0.10;0.10;;;;;;;19.08;77.46;96932.00;5025730;28;20510;-75
2023/07/29 06:11:12;;;;;;;0.10;0.10;;;;;;;19.09;77.94;96944.44;5026804;28;20048;-74
2023/07/29 06:13:42;;;;;;;0.10;0.10;;;;;;;19.09;77.66;96939.03;5025417;28;20056;-75
2023/07/29 06:16:09;;;;;;;0.03;0.03;;;;;;;19.08;77.04;96934.69;5025025;28;20102;-75
2023/07/29 06:18:38;;;;;;;0.10;0.10;;;;;;;19.10;76.79;96929.84;5024182;28;20057;-76
2023/07/29 06:21:07;;;;;;;0.00;0.00;;;;;;;19.18;76.77;96937.44;5041573;28;20112;-75
2023/07/29 06:23:35;;;;;;;0.10;0.10;;;;;;;19.25;76.98;96929.88;5041228;28;20048;-75
2023/07/29 06:26:03;;;;;;;0.00;0.00;;;;;;;19.35;75.82;96929.91;5023912;28;20045;-75
2023/07/29 06:28:31;;;;;;;0.10;0.10;;;;;;;19.53;75.29;96925.09;5042122;28;20047;-74
2023/07/29 06:31:00;;;;;;;0.20;0.20;;;;;;;19.59;74.74;96905.09;5042811;28;20391;-74
2023/07/29 06:33:27;;;;;;;0.10;0.10;;;;;;;19.68;74.41;96907.00;5045979;28;20041;-74
2023/07/29 06:35:55;;;;;;;0.10;0.10;;;;;;;19.75;74.60;96904.00;5044585;28;20120;-74
2023/07/29 06:38:23;;;;;;;0.10;0.10;;;;;;;19.81;73.74;96896.72;5039530;28;20037;-74
2023/07/29 06:40:51;;;;;;;0.08;0.08;;;;;;;19.86;74.31;96885.84;5040838;28;20127;-74
2023/07/29 06:43:18;;;;;;;0.10;0.10;;;;;;;19.84;73.79;96883.41;5042459;28;20043;-74
2023/07/29 06:45:46;;;;;;;0.10;0.10;;;;;;;19.77;74.21;96877.47;5043769;28;20044;-74
2023/07/29 06:48:15;;;;;;;0.10;0.10;;;;;;;19.78;74.45;96870.97;5041775;28;20073;-74
2023/07/29 06:50:43;;;;;;;0.10;0.10;;;;;;;19.64;74.34;96870.69;5041822;28;20044;-74
2023/07/29 06:53:10;;;;;;;0.10;0.10;;;;;;;19.63;75.10;96868.25;5040415;28;20051;-74
2023/07/29 06:55:39;;;;;;;0.03;0.03;;;;;;;19.59;74.88;96869.88;5045112;28;20075;-75
2023/07/29 06:58:06;;;;;;;0.08;0.08;;;;;;;19.62;75.21;96893.72;5024497;28;20049;-75
2023/07/29 07:00:34;;;;;;;0.30;0.30;;;;;;;19.56;74.86;96897.50;5043081;28;20041;-74
2023/07/29 07:03:01;;;;;;;0.13;0.13;;;;;;;19.53;76.04;96890.72;5041567;28;20413;-74
2023/07/29 07:05:31;;;;;;;0.10;0.10;;;;;;;19.43;77.49;96883.34;5043038;28;20112;-74
2023/07/29 07:07:59;;;;;;;0.03;0.03;;;;;;;19.31;77.75;96880.09;5041565;28;20044;-73
2023/07/29 07:10:27;;;;;;;0.00;0.00;;;;;;;19.29;77.93;96874.16;5039503;28;20045;-73
2023/07/29 07:12:55;;;;;;;0.10;0.10;;;;;;;19.24;78.14;96892.25;5040951;28;20135;-73
2023/07/29 07:15:22;;;;;;;0.08;0.08;;;;;;;19.17;78.57;96892.53;5041102;28;20051;-73
2023/07/29 07:17:50;;;;;;;0.03;0.03;;;;;;;19.18;78.22;96885.22;5041273;28;20038;-73
2023/07/29 07:20:18;;;;;;;0.10;0.10;;;;;;;19.23;78.31;96882.50;5039525;28;20041;-73
2023/07/29 07:22:47;;;;;;;0.00;0.00;;;;;;;19.23;78.75;96888.72;5039527;28;20040;-73
2023/07/29 07:25:14;;;;;;;0.10;0.10;;;;;;;19.25;78.06;96881.16;5040710;28;20041;-73
2023/07/29 07:27:42;;;;;;;0.10;0.10;;;;;;;19.26;78.01;96887.41;5040308;28;20029;-73
2023/07/29 07:30:10;;;;;;;0.10;0.10;;;;;;;19.32;77.90;96897.94;5038690;28;20045;-73
2023/07/29 07:32:38;;;;;;;0.10;0.10;;;;;;;19.26;77.50;96893.63;5038682;28;20085;-73
2023/07/29 07:35:06;;;;;;;0.10;0.10;;;;;;;19.34;78.07;96884.97;5040124;28;20036;-73
2023/07/29 07:37:33;;;;;;;0.10;0.10;;;;;;;19.42;77.75;96884.44;5041842;28;20040;-73
2023/07/29 07:40:03;;;;;;;0.00;0.00;;;;;;;19.59;77.67;96880.72;5046346;28;20037;-73
2023/07/29 07:42:30;;;;;;;0.00;0.00;;;;;;;19.67;76.77;96883.69;5049488;28;20045;-73
2023/07/29 07:44:58;;;;;;;0.10;0.10;;;;;;;19.82;76.02;96882.91;5046520;28;20077;-73
2023/07/29 07:47:26;;;;;;;0.00;0.00;;;;;;;19.88;76.02;96895.34;5040665;28;20504;-73
2023/07/29 07:49:56;;;;;;;0.00;0.00;;;;;;;19.87;74.45;96887.47;5040463;28;20064;-73
2023/07/29 07:52:26;;;;;;;0.30;0.30;;;;;;;19.90;73.99;96886.94;5041145;28;20516;-73
2023/07/29 07:54:54;;;;;;;0.17;0.17;;;;;;;19.94;73.92;96875.28;5039434;28;20050;-73
2023/07/29 07:57:23;;;;;;;0.20;0.20;;;;;;;20.18;73.30;96867.41;5041170;28;20055;-73
2023/07/29 07:59:52;;;;;;;0.00;0.00;;;;;;;20.49;72.72;96865.47;5039394;28;20071;-73
2023/07/29 08:02:20;;;;;;;0.00;0.00;;;;;;;20.82;71.17;96869.44;5041500;28;20037;-73
2023/07/29 08:04:48;;;;;;;0.10;0.10;;;;;;;20.88;69.96;96871.00;5040572;28;20691;-74
2023/07/29 08:07:15;;;;;;;0.10;0.10;;;;;;;20.95;70.10;96881.59;5043240;28;20048;-73
2023/07/29 08:09:43;;;;;;;0.00;0.00;;;;;;;20.91;68.51;96875.06;5044962;28;20474;-73
2023/07/29 08:12:10;;;;;;;0.08;0.08;;;;;;;20.76;69.06;96884.09;5039266;28;20060;-73
2023/07/29 08:14:39;;;;;;;0.10;0.10;;;;;;;20.75;69.72;96886.00;5039940;28;20095;-73
2023/07/29 08:17:07;;;;;;;0.10;0.10;;;;;;;20.82;68.97;96883.00;5038345;28;20049;-73
2023/07/29 08:19:35;;;;;;;0.20;0.20;;;;;;;20.83;68.34;96880.00;5039848;28;20049;-73
2023/07/29 08:22:03;;;;;;;0.00;0.00;;;;;;;20.82;68.22;96881.09;5042073;28;20052;-73
2023/07/29 08:24:31;;;;;;;0.10;0.10;;;;;;;20.80;68.27;96875.13;5043103;28;20052;-73
2023/07/29 08:26:58;;;;;;;0.05;0.05;;;;;;;20.80;68.63;96874.31;5042716;28;20065;-73
2023/07/29 08:29:26;;;;;;;0.20;0.20;;;;;;;20.76;67.80;96876.78;5043706;28;20083;-73
2023/07/29 08:31:55;;;;;;;0.10;0.10;;;;;;;20.75;67.98;96883.31;5043725;28;20046;-73
2023/07/29 08:34:23;;;;;;;0.05;0.05;;;;;;;20.64;69.32;96892.56;5044412;28;20037;-74
2023/07/29 08:36:51;;;;;;;0.05;0.05;;;;;;;20.49;71.48;96898.81;5044413;28;20448;-73
2023/07/29 08:39:18;;;;;;;0.10;0.10;;;;;;;20.16;73.57;96894.78;5044444;28;20041;-73
2023/07/29 08:41:51;;;;;;;0.20;0.20;;;;;;;19.87;75.37;96904.56;5043609;28;20393;-73
2023/07/29 08:44:22;;;;;;;0.10;0.10;;;;;;;19.67;76.25;96908.06;5044211;28;20046;-73
2023/07/29 08:46:50;;;;;;;0.10;0.10;;;;;;;19.54;76.99;96905.06;5044361;28;20045;-73
2023/07/29 08:49:19;;;;;;;0.10;0.10;;;;;;;19.46;78.66;96913.69;5044301;28;20619;-73
2023/07/29 08:51:48;;;;;;;0.10;0.10;;;;;;;19.42;79.90;96919.63;5044376;28;20045;-73
2023/07/29 08:54:17;;;;;;;0.10;0.10;;;;;;;19.35;81.82;96916.38;5045375;28;20041;-73
2023/07/29 08:56:45;;;;;;;0.10;0.10;;;;;;;19.12;82.41;96911.44;5056755;28;20049;-73
2023/07/29 08:59:16;;;;;;;0.10;0.10;;;;;;;19.10;83.00;96904.69;5052414;28;20071;-73
2023/07/29 09:01:44;;;;;;;0.10;0.10;;;;;;;19.06;83.75;96907.09;5028883;28;20041;-73
2023/07/29 09:04:12;;;;;;;0.10;0.10;;;;;;;19.06;83.97;96904.38;5041110;28;20041;-73
2023/07/29 09:06:44;;;;;;;0.10;0.10;;;;;;;19.03;84.26;96903.03;5042488;28;20041;-72
2023/07/29 09:09:12;;;;;;;0.00;0.00;;;;;;;19.05;84.20;96908.97;5044685;28;20037;-73
2023/07/29 09:11:39;;;;;;;0.10;0.10;;;;;;;19.09;83.35;96911.97;5044448;28;20391;-73
2023/07/29 09:14:07;;;;;;;0.10;0.10;;;;;;;19.11;82.62;96901.69;5045208;28;20076;-75
2023/07/29 09:16:36;;;;;;;0.20;0.20;;;;;;;19.18;83.40;96906.88;5043511;28;20049;-73
2023/07/29 09:19:04;;;;;;;0.13;0.13;;;;;;;19.18;82.64;96906.88;5043769;28;20060;-73
2023/07/29 09:21:32;;;;;;;0.08;0.08;;;;;;;19.25;82.69;96899.28;5040859;28;20043;-73
2023/07/29 09:24:05;;;;;;;0.20;0.20;;;;;;;19.36;83.19;96895.53;5042069;28;20069;-73
2023/07/29 09:26:32;;;;;;;0.10;0.10;;;;;;;19.40;82.16;96894.75;5043645;28;20486;-73
2023/07/29 09:29:01;;;;;;;0.10;0.10;;;;;;;19.41;81.64;96899.03;5042737;28;20045;-73
2023/07/29 09:31:29;;;;;;;0.10;0.10;;;;;;;19.37;81.45;96886.34;5042765;28;20049;-73
2023/07/29 09:33:58;;;;;;;0.10;0.10;;;;;;;19.34;81.40;96884.16;5042625;28;20053;-73
2023/07/29 09:36:27;;;;;;;0.20;0.20;;;;;;;19.31;81.80;96896.31;5043758;28;20041;-73
2023/07/29 09:38:55;;;;;;;0.10;0.10;;;;;;;19.35;81.92;96896.63;5043461;28;20045;-74
2023/07/29 09:41:24;;;;;;;0.10;0.10;;;;;;;19.35;81.94;96897.44;5045489;28;20047;-74
2023/07/29 09:43:58;;;;;;;0.00;0.00;;;;;;;19.39;82.26;96887.69;5043195;28;20128;-73
2023/07/29 09:46:26;;;;;;;0.10;0.10;;;;;;;19.38;81.97;96886.06;5043167;28;20032;-74
2023/07/29 09:48:55;;;;;;;0.10;0.10;;;;;;;19.45;81.75;96883.09;5041488;28;20567;-73
2023/07/29 09:51:23;;;;;;;0.10;0.10;;;;;;;19.44;81.45;96887.69;5042147;28;20041;-73
2023/07/29 09:53:52;;;;;;;0.13;0.13;;;;;;;19.41;81.53;96888.22;5043087;28;20037;-73
2023/07/29 09:56:26;;;;;;;0.00;0.00;;;;;;;19.46;81.08;96895.56;5041738;28;20128;-73
2023/07/29 09:58:57;;;;;;;0.03;0.03;;;;;;;19.53;81.70;96889.91;5042910;28;20130;-73
2023/07/29 10:01:25;;;;;;;0.10;0.10;;;;;;;19.46;81.26;96883.91;5045169;28;20041;-73
2023/07/29 10:03:56;;;;;;;0.10;0.10;;;;;;;19.46;81.71;96889.31;5045251;28;20081;-73
2023/07/29 10:06:24;;;;;;;0.05;0.05;;;;;;;19.52;81.79;96891.78;5044537;28;20049;-73
2023/07/29 10:08:52;;;;;;;0.08;0.08;;;;;;;19.59;81.57;96894.25;5043793;28;20056;-73
2023/07/29 10:11:22;;;;;;;0.10;0.10;;;;;;;19.64;82.39;96902.38;5044605;28;20100;-73
2023/07/29 10:13:51;;;;;;;0.10;0.10;;;;;;;19.63;82.51;96890.72;5047654;28;20044;-73
2023/07/29 10:16:35;;;;;;;0.10;0.10;;;;;;;19.65;82.59;96887.75;5044282;28;20041;-73
2023/07/29 10:19:04;;;;;;;0.10;0.10;;;;;;;19.68;82.44;96892.63;5043490;28;20084;-73
2023/07/29 10:21:32;;;;;;;0.10;0.10;;;;;;;19.69;83.01;96891.56;5042365;28;20042;-73
2023/07/29 10:24:02;;;;;;;0.10;0.10;;;;;;;19.74;83.28;96894.25;5042883;28;20056;-73
2023/07/29 10:26:33;;;;;;;0.03;0.03;;;;;;;19.69;82.92;96895.06;5041890;28;20448;-73
2023/07/29 10:29:05;;;;;;;0.00;0.00;;;;;;;19.65;82.90;96893.16;5042200;28;20069;-73
2023/07/29 10:31:33;;;;;;;0.10;0.10;;;;;;;19.56;82.49;96897.50;5042510;28;20042;-73
2023/07/29 10:34:01;;;;;;;0.10;0.10;;;;;;;19.53;82.71;96901.53;5044081;28;20048;-73
2023/07/29 10:36:29;;;;;;;0.10;0.10;;;;;;;19.50;83.10;96902.09;5044464;28;20053;-73
2023/07/29 10:38:57;;;;;;;0.05;0.05;;;;;;;19.43;83.38;96890.66;5045215;28;20041;-73
2023/07/29 10:41:24;;;;;;;0.10;0.10;;;;;;;19.40;82.92;96897.44;5041239;28;20055;-74
2023/07/29 10:43:52;;;;;;;0.20;0.20;;;;;;;19.42;83.09;96899.88;5041541;28;20413;-73
2023/07/29 10:46:22;;;;;;;0.10;0.10;;;;;;;19.43;83.41;96904.19;5042408;28;20045;-73
2023/07/29 10:48:54;;;;;;;0.00;0.00;;;;;;;19.30;84.68;96904.75;5042011;28;20095;-73
2023/07/29 10:51:22;;;;;;;;;;;;;;;19.21;86.80;96915.25;5043166;28;20390;-73
2023/07/29 10:53:53;;;;;;;0.10;0.10;;;;;;;19.06;87.29;96918.72;5042389;28;20378;-74
2023/07/29 10:56:28;;;;;;;0.20;0.20;;;;;;;18.96;88.58;96928.69;5043108;28;20500;-73
2023/07/29 10:58:57;;;;;;;0.10;0.10;;;;;;;18.82;88.30;96920.25;5043540;28;20055;-73
2023/07/29 11:01:32;;;;;;;0.10;0.10;;;;;;;18.50;91.27;96925.72;5048552;28;20041;-73
2023/07/29 11:04:27;;;;;;;0.10;0.10;;;;;;;18.05;93.81;96930.84;5059262;28;20041;-73
2023/07/29 11:07:26;;;;;;;0.10;0.10;;;;;;;17.71;93.39;96916.78;5052393;28;20532;-73
2023/07/29 11:09:59;;;;;;;0.10;0.10;;;;;;;17.47;95.93;96948.63;5058017;28;20053;-73
2023/07/29 11:12:42;;;;;;;0.10;0.10;;;;;;;17.31;96.74;96923.38;5054168;28;20090;-72
2023/07/29 11:15:15;;;;;;;0.10;0.10;;;;;;;17.30;97.26;96915.53;5041389;28;20146;-72
2023/07/29 11:17:45;;;;;;;0.10;0.10;;;;;;;17.31;97.21;96923.38;5040896;28;20069;-72
2023/07/29 11:20:13;;;;;;;0.10;0.10;;;;;;;17.31;96.35;96906.38;5038255;28;20041;-72
2023/07/29 11:22:41;;;;;;;0.10;0.10;;;;;;;17.33;96.10;96894.28;5043193;28;20124;-72
2023/07/29 11:25:10;;;;;;;0.10;0.10;;;;;;;17.37;95.84;96889.97;5041822;28;20069;-73
2023/07/29 11:27:38;;;;;;;0.20;0.20;;;;;;;17.44;95.61;96881.69;5041384;28;20143;-72
2023/07/29 11:30:08;;;;;;;0.10;0.10;;;;;;;17.49;96.36;96855.56;5040402;28;20036;-72
2023/07/29 11:32:36;;;;;;;0.10;0.10;;;;;;;17.48;95.46;96845.00;5041359;28;20053;-72
2023/07/29 11:35:08;;;;;;;0.10;0.10;;;;;;;17.56;95.91;96856.16;5040934;28;20045;-72
2023/07/29 11:37:36;;;;;;;0.00;0.00;;;;;;;17.67;95.84;96875.97;5025565;28;20139;-72
2023/07/29 11:40:05;;;;;;;0.10;0.10;;;;;;;17.85;96.04;96888.28;5040967;28;20038;-72
2023/07/29 11:42:33;;;;;;;0.17;0.17;;;;;;;17.97;95.99;96872.69;5039462;28;20069;-72